Time;durP1;ratioP1;P1;durP2;ratioP2;P2;SDS_P1;SDS_P2;PMS_P1;PMS_P2;Temp;Humidity;BMP_temperature;BMP_pressure;BME280_temperature;BME280_humidity;BME280_pressure;Samples;Min_cycle;Max_cycle;Signal;HPM_P1;HPM_P2
2021/05/14 00:05:28;;;;;;;4.93;2.60;;;11.80;99.90;;;;;;12208167;28;20052;-79
2021/05/14 00:11:30;;;;;;;4.68;2.40;;;11.70;99.90;;;;;;12207734;28;20086;-79
2021/05/14 00:17:34;;;;;;;5.55;2.60;;;11.60;99.90;;;;;;12216249;28;20052;-79
2021/05/14 00:23:36;;;;;;;5.18;2.90;;;11.60;99.90;;;;;;12218508;28;20052;-79
2021/05/14 00:29:38;;;;;;;6.65;3.20;;;11.40;99.90;;;;;;12214469;28;20047;-79
2021/05/14 00:35:39;;;;;;;5.00;2.97;;;11.50;99.90;;;;;;12218037;28;20067;-79
2021/05/14 00:41:41;;;;;;;7.15;2.75;;;11.30;99.90;;;;;;12208620;28;20075;-79
2021/05/14 00:47:43;;;;;;;7.35;3.13;;;11.30;99.90;;;;;;12215910;28;20190;-79
2021/05/14 00:53:45;;;;;;;10.57;3.15;;;11.20;99.90;;;;;;12217053;28;20059;-79
2021/05/14 00:59:48;;;;;;;6.30;3.38;;;11.30;99.90;;;;;;12206470;28;20205;-79
2021/05/14 01:05:50;;;;;;;7.85;3.78;;;11.00;99.90;;;;;;12211566;28;20131;-78
2021/05/14 01:11:52;;;;;;;9.38;4.18;;;11.10;99.90;;;;;;12204857;28;20086;-79
2021/05/14 01:17:55;;;;;;;9.88;5.03;;;11.20;99.90;;;;;;12207591;28;20091;-79
2021/05/14 01:23:57;;;;;;;7.15;4.13;;;11.50;99.90;;;;;;12210574;28;20520;-79
2021/05/14 01:29:59;;;;;;;11.80;3.95;;;11.30;99.90;;;;;;12205032;28;20730;-79
2021/05/14 01:36:03;;;;;;;11.50;4.32;;;11.50;99.90;;;;;;12220497;28;20526;-79
2021/05/14 01:42:05;;;;;;;6.88;4.10;;;11.10;99.90;;;;;;12254550;28;20051;-79
2021/05/14 01:48:07;;;;;;;8.27;4.43;;;11.20;99.90;;;;;;12225735;28;20044;-78
2021/05/14 01:54:10;;;;;;;11.35;6.35;;;11.10;99.90;;;;;;12194365;28;20109;-79
2021/05/14 02:00:12;;;;;;;10.63;6.47;;;11.30;99.90;;;;;;12211748;28;20052;-78
2021/05/14 02:06:15;;;;;;;11.15;7.60;;;11.50;99.90;;;;;;12203415;28;20130;-78
2021/05/14 02:12:17;;;;;;;11.77;7.50;;;11.50;99.90;;;;;;12192836;28;20094;-79
2021/05/14 02:18:19;;;;;;;12.25;7.97;;;11.50;99.90;;;;;;12203949;28;20182;-79
2021/05/14 02:24:20;;;;;;;11.80;6.88;;;11.30;99.90;;;;;;12193603;28;20080;-78
2021/05/14 02:30:23;;;;;;;8.80;5.82;;;11.30;99.90;;;;;;12221780;28;20664;-79
2021/05/14 02:36:25;;;;;;;13.18;7.75;;;11.10;99.90;;;;;;12204032;28;20076;-78
2021/05/14 02:42:27;;;;;;;18.75;12.57;;;11.20;99.90;;;;;;12201775;28;20873;-78
2021/05/14 02:48:29;;;;;;;17.90;13.18;;;11.40;99.90;;;;;;12192080;28;20078;-78
2021/05/14 02:54:33;;;;;;;18.35;14.25;;;11.40;99.90;;;;;;12203000;28;20139;-78
2021/05/14 03:00:34;;;;;;;19.60;14.52;;;11.20;99.90;;;;;;12204450;28;20127;-78
2021/05/14 03:06:36;;;;;;;23.50;15.55;;;11.10;99.90;;;;;;12209333;28;20106;-78
2021/05/14 03:12:38;;;;;;;20.98;15.40;;;11.10;99.90;;;;;;12212553;28;20089;-78
2021/05/14 03:18:40;;;;;;;22.58;16.88;;;11.10;99.90;;;;;;12214594;28;20436;-78
2021/05/14 03:24:42;;;;;;;27.70;18.02;;;11.00;99.90;;;;;;12207238;28;20785;-78
2021/05/14 03:30:44;;;;;;;25.48;17.80;;;10.80;99.90;;;;;;12205630;28;20079;-79
2021/05/14 03:36:46;;;;;;;21.75;14.05;;;10.70;99.90;;;;;;12213766;28;20086;-78
2021/05/14 03:42:48;;;;;;;24.02;15.10;;;10.50;99.90;;;;;;12203809;28;20136;-78
2021/05/14 03:48:50;;;;;;;22.48;16.17;;;10.10;99.90;;;;;;12205615;28;20060;-78
2021/05/14 03:54:52;;;;;;;24.73;16.02;;;10.00;99.90;;;;;;12201008;28;20182;-78
2021/05/14 04:00:54;;;;;;;24.00;16.50;;;10.30;99.90;;;;;;12213569;28;20055;-78
2021/05/14 04:06:58;;;;;;;21.83;14.20;;;10.20;99.90;;;;;;12199281;28;20538;-78
2021/05/14 04:19:21;;;;;;;24.15;14.50;;;10.00;99.90;;;;;;12209881;28;20443;-78
2021/05/14 04:25:23;;;;;;;21.23;14.80;;;9.90;99.90;;;;;;12209585;28;20056;-78
2021/05/14 04:31:26;;;;;;;22.80;14.82;;;10.10;99.90;;;;;;12211785;28;20048;-78
2021/05/14 04:37:28;;;;;;;28.33;17.13;;;10.30;99.90;;;;;;12204840;28;20078;-78
2021/05/14 04:43:30;;;;;;;23.88;15.55;;;10.60;99.90;;;;;;12204264;28;20408;-78
2021/05/14 04:49:32;;;;;;;25.67;17.58;;;10.90;99.90;;;;;;12203777;28;20056;-79
2021/05/14 04:55:34;;;;;;;24.85;17.42;;;11.00;99.90;;;;;;12161865;28;20112;-79
2021/05/14 05:01:36;;;;;;;26.58;18.77;;;11.10;99.90;;;;;;12158040;28;20076;-79
2021/05/14 05:07:39;;;;;;;30.60;20.85;;;11.20;99.90;;;;;;12155435;28;20052;-79
2021/05/14 05:13:41;;;;;;;29.83;21.25;;;11.20;99.90;;;;;;12199932;29;20098;-79
2021/05/14 05:19:42;;;;;;;30.65;21.85;;;11.10;99.90;;;;;;12205443;28;20139;-79
2021/05/14 05:25:48;;;;;;;27.90;19.80;;;11.10;99.90;;;;;;12198938;28;20094;-79
2021/05/14 05:31:50;;;;;;;35.03;21.70;;;11.30;99.90;;;;;;12204010;28;20615;-79
2021/05/14 05:37:54;;;;;;;33.75;21.98;;;11.30;99.90;;;;;;12210204;28;20048;-79
2021/05/14 05:43:55;;;;;;;32.55;22.58;;;11.50;99.90;;;;;;12199127;28;20095;-79
2021/05/14 05:49:58;;;;;;;29.42;20.73;;;11.40;99.90;;;;;;12205696;28;20126;-79
2021/05/14 05:56:00;;;;;;;30.95;19.83;;;11.40;99.90;;;;;;12199922;28;20556;-79
2021/05/14 06:02:02;;;;;;;27.30;19.52;;;11.30;99.90;;;;;;12202168;28;20071;-78
2021/05/14 06:08:04;;;;;;;27.55;18.88;;;11.30;99.90;;;;;;12202769;28;20098;-79
2021/05/14 06:14:06;;;;;;;31.70;19.83;;;11.20;99.90;;;;;;12200474;28;20729;-79
2021/05/14 06:20:16;;;;;;;28.70;20.15;;;11.30;99.90;;;;;;12203546;28;20511;-79
2021/05/14 06:26:18;;;;;;;28.15;20.02;;;11.20;99.90;;;;;;12206038;28;20048;-79
2021/05/14 06:32:19;;;;;;;33.67;22.23;;;11.50;99.90;;;;;;12203053;28;20457;-79
2021/05/14 06:38:21;;;;;;;33.13;21.58;;;11.60;99.90;;;;;;12205726;28;20154;-79
2021/05/14 06:44:23;;;;;;;30.27;21.55;;;11.80;99.90;;;;;;12202025;28;20092;-79
2021/05/14 06:50:25;;;;;;;28.58;19.60;;;12.00;99.90;;;;;;12210300;28;20052;-79
2021/05/14 06:56:27;;;;;;;29.45;22.23;;;12.40;99.90;;;;;;12210169;28;21650;-79
2021/05/14 07:02:29;;;;;;;28.83;20.58;;;12.50;99.90;;;;;;12214201;28;20094;-79
2021/05/14 07:08:31;;;;;;;26.67;19.77;;;12.40;99.90;;;;;;12205148;28;20504;-79
2021/05/14 07:14:33;;;;;;;29.42;21.42;;;12.80;99.90;;;;;;12203175;28;20048;-79
2021/05/14 07:20:36;;;;;;;28.25;20.58;;;13.10;99.90;;;;;;12199748;28;20175;-79
2021/05/14 07:26:38;;;;;;;32.72;22.25;;;13.00;99.90;;;;;;12202657;28;20052;-79
2021/05/14 07:32:41;;;;;;;28.40;19.80;;;12.90;99.90;;;;;;12211968;28;20055;-79
2021/05/14 07:38:43;;;;;;;26.73;20.23;;;13.10;99.90;;;;;;12209657;28;20079;-79
2021/05/14 07:44:45;;;;;;;25.73;19.33;;;13.10;99.90;;;;;;12246062;28;20028;-79
2021/05/14 07:50:51;;;;;;;28.20;20.90;;;13.30;99.90;;;;;;12240523;28;20063;-79
2021/05/14 07:56:53;;;;;;;26.63;20.48;;;13.30;99.90;;;;;;12201965;28;20052;-79
2021/05/14 08:02:55;;;;;;;28.42;20.38;;;13.10;99.90;;;;;;12209425;28;20044;-79
2021/05/14 08:08:59;;;;;;;27.40;20.85;;;12.90;99.90;;;;;;12208783;28;20060;-79
2021/05/14 08:15:02;;;;;;;26.40;19.45;;;13.00;99.90;;;;;;12207917;28;20410;-79
2021/05/14 08:21:04;;;;;;;30.00;20.42;;;13.10;99.90;;;;;;12208427;28;20078;-79
2021/05/14 08:27:06;;;;;;;26.55;20.00;;;13.10;99.90;;;;;;12205356;28;20044;-80
2021/05/14 08:33:08;;;;;;;24.70;18.67;;;13.20;99.90;;;;;;12205609;28;20417;-79
2021/05/14 08:39:10;;;;;;;26.88;18.92;;;13.00;99.90;;;;;;12217393;28;20139;-80
2021/05/14 08:45:13;;;;;;;24.65;18.13;;;13.00;99.90;;;;;;12215992;28;20089;-80
2021/05/14 08:51:15;;;;;;;24.17;18.98;;;13.20;99.90;;;;;;12220709;28;20060;-80
2021/05/14 08:57:17;;;;;;;25.20;18.23;;;13.30;99.90;;;;;;12222688;28;20052;-80
2021/05/14 09:03:20;;;;;;;23.98;18.40;;;13.30;99.90;;;;;;12224534;28;20103;-79
2021/05/14 09:09:22;;;;;;;21.63;16.40;;;13.60;99.90;;;;;;12209614;28;20101;-79
2021/05/14 09:15:30;;;;;;;23.95;16.90;;;13.60;99.90;;;;;;12196612;28;20557;-79
2021/05/14 09:21:32;;;;;;;25.70;18.80;;;13.50;99.90;;;;;;12216101;28;20044;-79
2021/05/14 09:27:38;;;;;;;25.38;18.70;;;13.30;99.90;;;;;;12204649;28;20129;-79
2021/05/14 09:33:45;;;;;;;25.80;19.60;;;13.50;99.90;;;;;;12216588;28;20044;-79
2021/05/14 09:39:47;;;;;;;30.00;20.27;;;13.30;99.90;;;;;;12206609;28;20079;-80
2021/05/14 09:45:49;;;;;;;26.15;19.70;;;13.50;99.90;;;;;;12200084;28;20116;-79
2021/05/14 09:52:06;;;;;;;27.73;20.33;;;13.60;99.90;;;;;;12199992;28;20167;-79
2021/05/14 09:58:20;;;;;;;25.55;19.58;;;13.70;99.90;;;;;;12207957;28;20052;-79
2021/05/14 10:04:22;;;;;;;26.52;19.67;;;13.80;99.90;;;;;;12202932;28;20147;-80
2021/05/14 10:10:24;;;;;;;25.88;20.42;;;13.70;99.90;;;;;;12214145;28;20075;-79
2021/05/14 10:16:26;;;;;;;29.48;21.27;;;13.50;99.90;;;;;;12196180;28;20102;-79
2021/05/14 10:22:30;;;;;;;24.55;19.80;;;13.50;99.90;;;;;;12207283;28;20574;-80
2021/05/14 10:28:43;;;;;;;28.00;21.73;;;13.40;99.90;;;;;;12206543;28;20079;-79
2021/05/14 10:34:45;;;;;;;28.33;20.58;;;13.30;99.90;;;;;;12215776;28;20071;-79
2021/05/14 10:40:47;;;;;;;21.10;16.90;;;13.20;99.90;;;;;;12204442;28;20493;-79
2021/05/14 10:46:48;;;;;;;20.60;16.30;;;13.30;99.90;;;;;;12201606;28;20151;-79
2021/05/14 10:53:18;;;;;;;18.85;15.07;;;13.20;99.90;;;;;;12207402;28;20437;-80
2021/05/14 10:59:30;;;;;;;21.63;16.75;;;13.10;99.90;;;;;;12205693;28;20071;-79
2021/05/14 11:05:32;;;;;;;18.98;14.85;;;13.10;99.90;;;;;;12202763;28;20067;-79
2021/05/14 11:11:34;;;;;;;16.77;13.48;;;13.20;99.90;;;;;;12201463;28;20222;-80
2021/05/14 11:17:36;;;;;;;13.80;10.80;;;13.10;99.90;;;;;;12209025;28;20060;-80
2021/05/14 11:23:40;;;;;;;12.50;10.10;;;13.10;99.90;;;;;;12216861;28;20075;-79
2021/05/14 11:29:44;;;;;;;13.82;10.40;;;13.30;99.90;;;;;;12218502;28;20060;-79
2021/05/14 11:35:46;;;;;;;;;;;13.40;99.90;;;;;;12211438;28;20082;-80
2021/05/14 11:41:57;;;;;;;12.00;10.15;;;13.50;99.90;;;;;;12217385;28;19933;-80
2021/05/14 11:48:07;;;;;;;13.95;9.73;;;13.70;99.90;;;;;;12217332;28;20170;-80
2021/05/14 11:54:09;;;;;;;12.45;10.05;;;14.10;99.90;;;;;;12217686;28;20556;-79
2021/05/14 12:00:11;;;;;;;15.10;10.80;;;14.00;99.90;;;;;;12219537;28;20048;-80
2021/05/14 12:06:13;;;;;;;12.07;9.35;;;13.80;99.90;;;;;;12223257;28;21476;-80
2021/05/14 12:12:20;;;;;;;11.77;8.93;;;13.70;99.90;;;;;;12214126;28;20078;-80
2021/05/14 12:18:22;;;;;;;10.55;8.23;;;13.70;99.90;;;;;;12215681;28;20199;-80
2021/05/14 12:24:24;;;;;;;11.70;8.90;;;13.90;99.90;;;;;;12215749;28;20123;-80
2021/05/14 12:30:39;;;;;;;8.98;7.95;;;13.80;99.90;;;;;;12208301;28;20075;-80
2021/05/14 12:36:41;;;;;;;12.40;10.02;;;13.90;99.90;;;;;;12209385;28;20049;-80
2021/05/14 12:42:43;;;;;;;11.73;9.35;;;13.90;99.90;;;;;;12221473;28;20141;-80
2021/05/14 12:48:47;;;;;;;11.45;9.93;;;14.10;99.90;;;;;;12218162;28;20063;-80
2021/05/14 12:55:15;;;;;;;12.38;9.48;;;14.20;99.90;;;;;;12233835;28;20064;-80
2021/05/14 13:01:23;;;;;;;11.40;10.13;;;14.30;99.90;;;;;;12257026;28;20036;-80
2021/05/14 13:07:26;;;;;;;10.30;9.10;;;14.60;99.90;;;;;;12235579;28;20094;-80
2021/05/14 13:13:28;;;;;;;9.70;8.60;;;15.00;99.90;;;;;;12220373;28;20082;-80
2021/05/14 13:19:31;;;;;;;10.02;8.18;;;15.50;99.90;;;;;;12222481;28;20044;-80
2021/05/14 13:25:32;;;;;;;9.52;8.52;;;15.90;99.90;;;;;;12216096;28;20091;-80
2021/05/14 13:31:34;;;;;;;10.57;8.88;;;15.90;99.90;;;;;;12204773;28;20048;-80
2021/05/14 13:37:36;;;;;;;9.30;7.70;;;15.70;99.90;;;;;;12215382;28;20075;-80
2021/05/14 13:43:38;;;;;;;8.30;6.68;;;15.80;99.90;;;;;;12202168;28;20071;-80
2021/05/14 13:49:40;;;;;;;9.15;5.75;;;16.00;99.90;;;;;;12209474;28;20067;-80
2021/05/14 13:55:42;;;;;;;7.18;5.35;;;16.30;99.90;;;;;;12201014;28;20131;-80
2021/05/14 14:01:44;;;;;;;8.68;4.60;;;16.40;99.90;;;;;;12216467;28;20051;-80
2021/05/14 14:07:46;;;;;;;7.80;5.15;;;16.50;99.90;;;;;;12204279;28;20063;-81
2021/05/14 14:13:47;;;;;;;6.53;4.63;;;16.80;99.90;;;;;;12221331;28;20509;-79
2021/05/14 14:19:49;;;;;;;8.13;4.63;;;16.20;99.90;;;;;;12207134;28;20328;-80
2021/05/14 14:25:51;;;;;;;6.35;4.07;;;16.10;99.90;;;;;;12204292;28;20083;-81
2021/05/14 14:31:53;;;;;;;6.80;4.25;;;16.00;99.90;;;;;;12282262;28;20565;-80
2021/05/14 14:37:55;;;;;;;5.13;3.83;;;15.60;99.90;;;;;;12196564;28;20041;-80
2021/05/14 14:43:59;;;;;;;5.63;3.75;;;15.80;99.90;;;;;;12202731;28;20055;-81
2021/05/14 14:50:01;;;;;;;5.18;3.65;;;15.70;99.90;;;;;;12210701;28;20071;-81
2021/05/14 14:56:03;;;;;;;5.28;3.60;;;15.90;99.90;;;;;;12212291;28;20056;-80
2021/05/14 15:02:05;;;;;;;4.70;3.40;;;16.70;99.90;;;;;;12207505;28;20531;-80
2021/05/14 15:08:07;;;;;;;5.63;3.38;;;17.40;99.90;;;;;;12219644;28;20505;-80
2021/05/14 15:14:11;;;;;;;5.10;3.50;;;17.40;99.90;;;;;;12214775;28;20052;-80
2021/05/14 15:20:13;;;;;;;7.35;4.00;;;18.10;99.90;;;;;;12217454;28;20094;-82
2021/05/14 15:26:15;;;;;;;6.28;4.05;;;17.80;99.90;;;;;;12219895;28;20070;-81
2021/05/14 15:32:23;;;;;;;6.28;4.10;;;17.90;99.90;;;;;;12209996;28;20163;-81
2021/05/14 15:38:25;;;;;;;4.10;3.20;;;18.20;99.90;;;;;;12297179;28;20051;-82
2021/05/14 15:44:28;;;;;;;5.28;3.72;;;18.60;99.90;;;;;;12217354;28;20048;-81
2021/05/14 15:50:30;;;;;;;5.13;3.33;;;18.80;99.90;;;;;;12214975;28;20047;-81
2021/05/14 15:56:32;;;;;;;4.82;2.88;;;18.60;99.90;;;;;;12215592;28;20076;-81
2021/05/14 16:02:35;;;;;;;4.13;3.03;;;18.30;99.90;;;;;;12209139;28;20040;-81
2021/05/14 16:08:39;;;;;;;4.47;3.30;;;18.30;99.90;;;;;;12214295;28;20096;-81
2021/05/14 16:14:41;;;;;;;4.93;3.20;;;17.70;99.90;;;;;;12214812;28;20432;-80
2021/05/14 16:20:51;;;;;;;5.80;3.00;;;17.30;99.90;;;;;;12297077;28;20086;-82
2021/05/14 16:26:53;;;;;;;5.85;3.00;;;17.40;99.90;;;;;;12223465;28;20055;-80
2021/05/14 16:32:56;;;;;;;4.93;2.75;;;17.00;99.90;;;;;;12197961;28;20041;-81
2021/05/14 16:38:58;;;;;;;3.58;2.85;;;16.70;99.90;;;;;;12176044;29;20836;-81
2021/05/14 16:45:00;;;;;;;4.13;2.70;;;16.70;99.90;;;;;;12208773;28;20139;-81
2021/05/14 16:51:02;;;;;;;3.95;2.80;;;17.20;99.90;;;;;;12215932;28;20063;-82
2021/05/14 16:57:04;;;;;;;3.80;2.58;;;19.20;99.90;;;;;;12216215;28;20072;-81
2021/05/14 17:03:06;;;;;;;5.28;2.70;;;19.70;99.90;;;;;;12217370;28;20045;-81
2021/05/14 17:09:09;;;;;;;3.85;3.17;;;20.20;99.90;;;;;;12223336;28;20052;-81
2021/05/14 17:15:11;;;;;;;3.72;2.88;;;20.20;99.90;;;;;;12210975;28;20072;-80
2021/05/14 17:21:16;;;;;;;6.53;3.22;;;21.10;99.90;;;;;;12205596;28;20040;-80
2021/05/14 17:27:19;;;;;;;5.55;3.33;;;21.00;99.90;;;;;;12213196;28;20159;-81
2021/05/14 17:33:21;;;;;;;5.47;3.47;;;21.00;99.90;;;;;;12204670;28;20068;-80
2021/05/14 17:39:23;;;;;;;5.03;3.90;;;20.10;99.90;;;;;;12211511;28;20055;-80
2021/05/14 17:45:25;;;;;;;5.60;4.55;;;19.60;99.90;;;;;;12207300;28;20130;-81
2021/05/14 17:51:27;;;;;;;4.82;4.00;;;19.80;99.90;;;;;;12215558;28;20117;-81
2021/05/14 17:57:29;;;;;;;6.60;4.05;;;19.40;99.90;;;;;;12210830;28;20100;-81
2021/05/14 18:03:32;;;;;;;6.60;4.65;;;19.20;99.90;;;;;;12216807;28;20051;-82
2021/05/14 18:09:35;;;;;;;6.63;4.07;;;18.80;99.90;;;;;;12211971;28;20131;-80
2021/05/14 18:15:37;;;;;;;6.75;4.00;;;17.40;99.90;;;;;;12212246;28;20308;-80
2021/05/14 18:21:40;;;;;;;5.97;4.50;;;16.70;99.90;;;;;;12193320;28;20091;-80
2021/05/14 18:27:42;;;;;;;5.78;4.50;;;15.80;99.90;;;;;;12155589;28;20263;-80
2021/05/14 18:33:46;;;;;;;5.45;4.20;;;15.60;99.90;;;;;;12206381;28;20107;-80
2021/05/14 18:39:49;;;;;;;6.05;4.80;;;15.30;99.90;;;;;;12175884;28;20051;-80
2021/05/14 18:45:50;;;;;;;6.53;4.68;;;14.70;99.90;;;;;;12196400;28;20343;-80
2021/05/14 18:51:52;;;;;;;5.43;4.45;;;14.70;99.90;;;;;;12192239;28;20059;-80
2021/05/14 18:57:56;;;;;;;7.18;4.95;;;14.60;99.90;;;;;;12196093;28;20056;-80
2021/05/14 19:03:57;;;;;;;6.65;5.85;;;14.40;99.90;;;;;;12197698;29;20742;-80
2021/05/14 19:10:00;;;;;;;8.70;5.60;;;14.40;99.90;;;;;;12202648;29;20151;-80
2021/05/14 19:16:04;;;;;;;7.97;5.90;;;14.30;99.90;;;;;;12213870;28;20040;-80
2021/05/14 19:22:08;;;;;;;7.97;5.68;;;14.10;99.90;;;;;;12214990;28;20055;-80
2021/05/14 19:34:49;;;;;;;9.48;5.05;;;13.70;99.90;;;;;;12200407;28;20055;-80
2021/05/14 19:53:19;;;;;;;9.75;5.75;;;12.70;99.90;;;;;;12206262;28;20055;-79
2021/05/14 19:59:22;;;;;;;7.03;5.82;;;12.60;99.90;;;;;;12204969;28;20076;-79
2021/05/14 20:05:24;;;;;;;13.55;5.90;;;12.40;99.90;;;;;;12159741;28;20095;-79
2021/05/14 20:11:26;;;;;;;9.98;6.20;;;12.40;99.90;;;;;;12157770;28;20049;-79
2021/05/14 20:17:28;;;;;;;10.80;6.20;;;12.20;99.90;;;;;;12156717;28;20112;-79
2021/05/14 20:23:30;;;;;;;9.93;6.78;;;12.20;99.90;;;;;;12191982;28;20076;-79
2021/05/14 20:29:33;;;;;;;8.32;6.80;;;12.00;99.90;;;;;;12199595;28;20693;-79
2021/05/14 20:35:35;;;;;;;9.18;6.72;;;11.80;99.90;;;;;;12206245;28;20126;-79
2021/05/14 20:41:37;;;;;;;9.70;6.93;;;11.70;99.90;;;;;;12209608;28;20134;-79
2021/05/14 20:47:39;;;;;;;8.82;6.38;;;11.70;99.90;;;;;;12215266;28;20649;-79
2021/05/14 20:53:42;;;;;;;11.40;6.90;;;11.50;99.90;;;;;;12200102;29;20480;-79
2021/05/14 20:59:43;;;;;;;10.18;7.82;;;11.40;99.90;;;;;;12208043;28;20068;-80
2021/05/14 21:05:46;;;;;;;10.27;8.23;;;11.10;99.90;;;;;;12203072;29;20135;-79
2021/05/14 21:11:48;;;;;;;9.95;7.53;;;10.70;99.90;;;;;;12206606;29;20076;-79
2021/05/14 21:17:50;;;;;;;9.98;7.80;;;10.80;99.90;;;;;;12208722;29;20048;-79
2021/05/14 21:23:52;;;;;;;12.20;8.77;;;10.60;99.90;;;;;;12180665;28;20391;-79
2021/05/14 21:29:54;;;;;;;13.13;8.40;;;10.90;99.90;;;;;;12162116;28;20512;-79
2021/05/14 21:35:56;;;;;;;9.25;7.57;;;10.90;99.90;;;;;;12163669;28;21413;-78
2021/05/14 21:41:57;;;;;;;10.27;8.70;;;10.70;99.90;;;;;;12175732;28;20131;-79
2021/05/14 21:47:58;;;;;;;12.65;9.85;;;10.60;99.90;;;;;;12197513;28;20031;-79
2021/05/14 21:53:58;;;;;;;14.32;10.93;;;10.60;99.90;;;;;;12200370;28;20035;-79
2021/05/14 21:59:59;;;;;;;14.05;11.35;;;10.60;99.90;;;;;;12208295;28;20119;-79
2021/05/14 22:06:00;;;;;;;13.63;10.02;;;10.70;99.90;;;;;;12204102;28;20040;-79
2021/05/14 22:12:00;;;;;;;14.93;10.98;;;10.80;99.90;;;;;;12205807;28;20126;-79
2021/05/14 22:18:02;;;;;;;15.15;12.48;;;10.80;99.90;;;;;;12200063;28;20458;-79
2021/05/14 22:24:03;;;;;;;20.73;10.80;;;10.90;99.90;;;;;;12208729;28;20040;-79
2021/05/14 22:30:05;;;;;;;14.45;11.65;;;11.10;99.90;;;;;;12206405;28;20048;-78
2021/05/14 22:36:06;;;;;;;17.17;13.00;;;11.30;99.90;;;;;;12213998;28;20040;-79
2021/05/14 22:42:07;;;;;;;17.00;13.05;;;11.10;99.90;;;;;;12202617;28;20031;-79
2021/05/14 22:48:08;;;;;;;16.70;11.32;;;11.10;99.90;;;;;;12198376;28;20043;-78
2021/05/14 22:54:08;;;;;;;17.77;13.95;;;11.00;99.90;;;;;;12203041;28;21053;-79
2021/05/14 23:00:11;;;;;;;19.00;14.55;;;10.90;99.90;;;;;;12204396;28;20044;-79
2021/05/14 23:06:12;;;;;;;18.15;15.07;;;10.80;99.90;;;;;;12203606;28;20050;-79
2021/05/14 23:12:12;;;;;;;18.58;15.25;;;10.70;99.90;;;;;;12215718;28;21344;-79
2021/05/14 23:18:13;;;;;;;19.75;14.85;;;10.70;99.90;;;;;;12228257;28;20059;-79
2021/05/14 23:24:14;;;;;;;18.80;15.50;;;10.60;99.90;;;;;;12215944;28;20051;-79
2021/05/14 23:30:15;;;;;;;20.23;15.88;;;10.50;99.90;;;;;;12211158;28;20148;-79
2021/05/14 23:36:16;;;;;;;21.48;16.65;;;10.50;99.90;;;;;;12224106;28;20075;-79
2021/05/14 23:42:16;;;;;;;19.38;15.85;;;10.40;99.90;;;;;;12220919;28;20649;-79
2021/05/14 23:48:17;;;;;;;19.02;16.13;;;10.50;99.90;;;;;;12211619;28;20036;-79
2021/05/14 23:54:18;;;;;;;16.98;14.82;;;10.40;99.90;;;;;;12269849;28;20067;-78
